createdAt,value
2023-02-14T00:01:32.035Z,17.87
2023-02-14T00:04:01.544Z,18.37
2023-02-14T00:06:32.728Z,17.93
2023-02-14T00:09:01.043Z,18.90
2023-02-14T00:11:31.385Z,18.47
2023-02-14T00:14:18.174Z,18.90
2023-02-14T00:16:46.241Z,17.60
2023-02-14T00:19:15.271Z,17.40
2023-02-14T00:21:43.507Z,19.80
2023-02-14T00:24:14.136Z,19.43
2023-02-14T00:26:43.851Z,19.43
2023-02-14T00:29:13.673Z,19.03
2023-02-14T00:31:42.581Z,18.90
2023-02-14T00:34:11.503Z,19.00
2023-02-14T00:36:40.141Z,18.20
2023-02-14T00:39:10.061Z,18.77
2023-02-14T00:41:38.791Z,17.63
2023-02-14T00:44:09.840Z,18.10
2023-02-14T00:46:37.852Z,18.57
2023-02-14T00:49:05.933Z,18.57
2023-02-14T00:51:33.944Z,18.37
2023-02-14T00:54:03.459Z,19.17
2023-02-14T00:56:33.050Z,18.53
2023-02-14T00:59:01.201Z,19.40
2023-02-14T01:01:30.398Z,19.00
2023-02-14T01:03:59.061Z,19.47
2023-02-14T01:06:27.176Z,21.07
2023-02-14T01:08:54.987Z,18.93
2023-02-14T01:11:24.801Z,18.80
2023-02-14T01:13:57.095Z,19.57
2023-02-14T01:22:19.177Z,19.10
2023-02-14T01:24:47.002Z,19.77
2023-02-14T01:27:14.972Z,19.20
2023-02-14T01:29:42.770Z,18.80
2023-02-14T01:32:10.573Z,19.23
2023-02-14T01:34:39.919Z,19.30
2023-02-14T01:37:07.760Z,18.93
2023-02-14T01:39:36.293Z,19.30
2023-02-14T01:42:04.181Z,19.03
2023-02-14T01:45:02.572Z,19.90
2023-02-14T01:47:37.558Z,19.83
2023-02-14T01:50:11.609Z,19.67
2023-02-14T01:52:44.473Z,19.33
2023-02-14T01:55:18.563Z,19.37
2023-02-14T01:57:51.234Z,19.87
2023-02-14T02:00:39.108Z,19.93
2023-02-14T02:03:09.093Z,21.83
2023-02-14T02:05:42.115Z,20.67
2023-02-14T02:08:10.078Z,18.87
2023-02-14T02:10:37.846Z,19.87
2023-02-14T02:13:08.580Z,19.70
2023-02-14T02:15:43.187Z,19.87
2023-02-14T02:18:17.983Z,19.80
2023-02-14T02:21:30.910Z,19.13
2023-02-14T02:24:20.513Z,20.93
2023-02-14T02:27:17.560Z,19.60
2023-02-14T02:30:23.715Z,20.50
2023-02-14T02:33:29.123Z,21.20
2023-02-14T02:36:22.956Z,19.70
2023-02-14T02:39:12.400Z,20.13
2023-02-14T02:41:53.285Z,20.93
2023-02-14T02:44:35.118Z,21.77
2023-02-14T02:47:08.697Z,20.60
2023-02-14T02:50:03.699Z,20.27
2023-02-14T02:52:59.099Z,21.20
2023-02-14T02:55:52.726Z,21.97
2023-02-14T02:58:22.279Z,22.00
2023-02-14T03:00:52.385Z,20.37
2023-02-14T03:03:43.232Z,20.70
2023-02-14T03:06:11.261Z,20.43
2023-02-14T03:08:40.456Z,21.37
2023-02-14T03:11:08.468Z,21.43
2023-02-14T03:13:48.678Z,21.17
2023-02-14T03:16:32.497Z,22.40
2023-02-14T03:19:19.959Z,21.47
2023-02-14T03:21:54.624Z,20.50
2023-02-14T03:24:31.366Z,22.83
2023-02-14T03:27:06.947Z,22.77
2023-02-14T03:29:50.237Z,21.97
2023-02-14T03:32:26.537Z,22.23
2023-02-14T03:34:59.952Z,22.73
2023-02-14T03:37:32.704Z,22.70
2023-02-14T03:40:09.775Z,22.27
2023-02-14T03:42:43.600Z,22.17
2023-02-14T03:45:17.950Z,22.07
2023-02-14T03:47:47.919Z,22.33
2023-02-14T03:50:19.503Z,23.90
2023-02-14T03:52:50.687Z,23.67
2023-02-14T03:55:28.868Z,22.00
2023-02-14T03:58:03.047Z,23.70
2023-02-14T04:00:34.826Z,23.37
2023-02-14T04:03:07.141Z,22.70
2023-02-14T04:05:35.012Z,22.93
2023-02-14T04:08:02.791Z,22.60
2023-02-14T04:10:33.265Z,23.67
2023-02-14T04:13:02.105Z,22.80
2023-02-14T04:15:30.075Z,22.53
2023-02-14T04:18:15.305Z,22.00
2023-02-14T04:20:43.008Z,22.43
2023-02-14T04:23:10.685Z,22.73
2023-02-14T04:25:42.921Z,24.30
2023-02-14T04:28:10.856Z,23.70
2023-02-14T04:30:38.636Z,22.93
2023-02-14T04:33:07.985Z,23.70
2023-02-14T04:35:36.067Z,22.70
2023-02-14T04:38:04.582Z,23.10
2023-02-14T04:40:33.113Z,22.80
2023-02-14T04:43:04.657Z,25.13
2023-02-14T04:45:32.601Z,23.70
2023-02-14T04:48:00.788Z,26.23
2023-02-14T04:50:28.589Z,27.17
2023-02-14T04:52:56.344Z,28.90
2023-02-14T04:55:24.188Z,26.30
2023-02-14T04:57:52.107Z,28.00
2023-02-14T05:00:22.359Z,26.73
2023-02-14T05:02:50.058Z,25.27
2023-02-14T05:05:18.151Z,26.87
2023-02-14T05:07:47.776Z,25.83
2023-02-14T05:10:16.095Z,26.87
2023-02-14T05:12:43.736Z,28.40
2023-02-14T05:15:11.587Z,27.87
2023-02-14T05:17:40.698Z,28.57
2023-02-14T05:20:09.397Z,28.23
2023-02-14T05:22:37.106Z,26.20
2023-02-14T05:25:04.988Z,26.37
2023-02-14T05:27:33.669Z,27.07
2023-02-14T05:30:02.240Z,27.57
2023-02-14T05:32:30.181Z,28.23
2023-02-14T05:35:01.099Z,28.27
2023-02-14T05:37:29.093Z,26.73
2023-02-14T05:39:56.952Z,26.70
2023-02-14T05:42:24.810Z,29.13
2023-02-14T05:44:52.698Z,26.97
2023-02-14T05:47:20.461Z,28.40
2023-02-14T05:49:48.434Z,29.03
2023-02-14T05:52:17.592Z,27.53
2023-02-14T05:54:45.276Z,27.00
2023-02-14T05:57:12.989Z,27.93
2023-02-14T05:59:40.764Z,26.30
2023-02-14T06:02:08.788Z,27.53
2023-02-14T06:04:36.830Z,28.77
2023-02-14T06:07:04.675Z,28.10
2023-02-14T06:09:34.402Z,28.67
2023-02-14T06:12:02.559Z,27.67
2023-02-14T06:14:30.282Z,28.77
2023-02-14T06:16:58.421Z,28.93
2023-02-14T06:19:26.147Z,27.07
2023-02-14T06:21:54.097Z,29.83
2023-02-14T06:24:21.975Z,27.90
2023-02-14T06:26:51.059Z,29.63
2023-02-14T06:29:19.324Z,28.10
2023-02-14T06:31:47.283Z,29.70
2023-02-14T06:34:16.297Z,29.23
2023-02-14T06:36:44.410Z,29.93
2023-02-14T06:39:12.232Z,29.73
2023-02-14T06:41:40.013Z,30.73
2023-02-14T06:44:10.628Z,30.77
2023-02-14T06:46:38.405Z,30.67
2023-02-14T06:49:06.047Z,31.23
2023-02-14T06:51:33.721Z,30.93
2023-02-14T06:54:02.750Z,31.60
2023-02-14T06:56:30.438Z,32.03
2023-02-14T06:58:58.833Z,30.93
2023-02-14T07:01:28.178Z,29.87
2023-02-14T07:03:56.087Z,30.87
2023-02-14T07:06:23.819Z,30.37
2023-02-14T07:08:51.643Z,31.60
2023-02-14T07:11:19.543Z,31.80
2023-02-14T07:13:49.387Z,30.73
2023-02-14T07:16:17.414Z,32.80
2023-02-14T07:18:47.249Z,31.90
2023-02-14T07:21:15.019Z,40.97
2023-02-14T07:23:46.213Z,32.33
2023-02-14T07:26:17.915Z,31.57
2023-02-14T07:28:45.950Z,31.13
2023-02-14T07:31:14.166Z,32.60
2023-02-14T07:33:42.106Z,31.67
2023-02-14T07:36:11.727Z,32.10
2023-02-14T07:38:40.068Z,32.73
2023-02-14T07:41:07.881Z,31.00
2023-02-14T07:43:36.624Z,32.93
2023-02-14T07:46:05.730Z,34.70
2023-02-14T07:48:34.465Z,30.53
2023-02-14T07:51:03.405Z,29.97
2023-02-14T07:53:33.055Z,33.60
2023-02-14T07:56:00.947Z,32.20
2023-02-14T07:58:28.681Z,31.07
2023-02-14T08:00:57.215Z,31.70
2023-02-14T08:03:30.287Z,31.70
2023-02-14T08:05:58.517Z,33.10
2023-02-14T08:08:27.683Z,32.73
2023-02-14T08:10:57.315Z,32.43
2023-02-14T08:13:25.388Z,32.83
2023-02-14T08:16:05.466Z,33.00
2023-02-14T08:18:35.572Z,33.60
2023-02-14T08:21:04.464Z,34.93
2023-02-14T08:23:32.381Z,35.57
2023-02-14T08:26:01.652Z,35.57
2023-02-14T08:28:29.928Z,35.50
2023-02-14T08:30:58.523Z,36.97
2023-02-14T08:33:26.692Z,36.60
2023-02-14T08:35:54.537Z,35.03
2023-02-14T08:38:22.869Z,34.80
2023-02-14T08:40:50.577Z,34.57
2023-02-14T08:43:19.672Z,35.53
2023-02-14T08:45:48.427Z,35.07
2023-02-14T08:48:16.348Z,34.20
2023-02-14T08:50:44.101Z,34.83
2023-02-14T08:53:14.727Z,35.83
2023-02-14T08:55:43.025Z,35.37
2023-02-14T08:58:10.843Z,35.93
2023-02-14T09:00:40.315Z,35.77
2023-02-14T09:03:08.353Z,35.13
2023-02-14T09:05:36.180Z,37.40
2023-02-14T09:08:04.979Z,40.93
2023-02-14T09:10:32.783Z,35.93
2023-02-14T09:13:01.222Z,35.87
2023-02-14T09:15:29.157Z,35.93
2023-02-14T09:17:58.452Z,32.47
2023-02-14T09:20:26.419Z,36.03
2023-02-14T09:22:56.478Z,37.40
2023-02-14T09:25:24.330Z,35.27
2023-02-14T09:27:52.286Z,34.33
2023-02-14T09:30:20.144Z,34.60
2023-02-14T09:32:48.125Z,33.23
2023-02-14T09:35:17.520Z,36.87
2023-02-14T09:37:45.465Z,34.37
2023-02-14T09:40:15.501Z,34.20
2023-02-14T09:43:02.709Z,34.13
2023-02-14T09:45:33.347Z,35.03
2023-02-14T09:48:07.909Z,35.33
2023-02-14T09:50:41.198Z,34.60
2023-02-14T09:53:19.594Z,36.17
2023-02-14T09:55:56.191Z,34.77
2023-02-14T09:58:30.873Z,35.57
2023-02-14T10:01:05.069Z,37.43
2023-02-14T10:03:52.851Z,39.20
2023-02-14T10:06:46.625Z,38.73
2023-02-14T10:09:25.279Z,38.67
2023-02-14T10:11:54.220Z,40.80
2023-02-14T10:14:26.147Z,38.63
2023-02-14T10:16:57.484Z,39.43
2023-02-14T10:19:28.608Z,42.20
2023-02-14T10:22:02.587Z,38.67
2023-02-14T10:24:36.717Z,43.10
2023-02-14T10:27:11.750Z,41.27
2023-02-14T10:29:40.645Z,42.50
2023-02-14T10:32:14.929Z,44.03
2023-02-14T10:34:48.866Z,39.93
2023-02-14T10:37:33.625Z,39.47
2023-02-14T10:40:22.455Z,41.27
2023-02-14T10:42:59.838Z,40.93
2023-02-14T10:45:36.419Z,40.97
2023-02-14T10:48:14.119Z,40.60
2023-02-14T10:50:50.641Z,39.07
2023-02-14T10:53:25.775Z,40.40
2023-02-14T10:55:58.498Z,42.47
2023-02-14T10:58:29.981Z,44.03
2023-02-14T11:01:04.392Z,42.43
2023-02-14T11:03:35.635Z,41.37
2023-02-14T11:06:03.848Z,42.37
2023-02-14T11:08:35.718Z,44.93
2023-02-14T11:11:17.420Z,45.10
2023-02-14T11:13:46.061Z,44.90
2023-02-14T11:16:29.540Z,44.40
2023-02-14T11:19:10.866Z,46.42
2023-02-14T11:21:40.637Z,47.03
2023-02-14T11:24:20.842Z,45.75
2023-02-14T11:26:53.129Z,45.90
2023-02-14T11:29:28.131Z,47.23
2023-02-14T11:31:56.977Z,47.33
2023-02-14T11:34:36.545Z,48.13
2023-02-14T11:37:05.603Z,49.10
2023-02-14T11:39:36.528Z,47.90
2023-02-14T11:42:06.836Z,50.33
2023-02-14T11:44:37.171Z,48.90
2023-02-14T11:47:26.136Z,46.07
2023-02-14T11:49:58.835Z,47.53
2023-02-14T11:52:29.671Z,49.17
2023-02-14T11:54:59.580Z,47.20
2023-02-14T11:57:32.416Z,47.30
2023-02-14T12:00:04.930Z,48.65
2023-02-14T12:02:43.268Z,51.17
2023-02-14T12:05:21.584Z,51.03
2023-02-14T12:07:52.914Z,49.10
2023-02-14T12:10:26.586Z,49.77
2023-02-14T12:12:57.940Z,51.93
2023-02-14T12:15:40.338Z,49.37
2023-02-14T12:18:38.228Z,51.40
2023-02-14T12:21:22.388Z,50.37
2023-02-14T12:24:01.532Z,51.70
2023-02-14T12:26:36.030Z,54.40
2023-02-14T12:29:13.866Z,53.17
2023-02-14T12:31:43.101Z,50.53
2023-02-14T12:34:12.862Z,53.10
2023-02-14T12:37:03.319Z,50.65
2023-02-14T12:39:38.719Z,48.43
2023-02-14T12:42:22.816Z,50.67
2023-02-14T12:45:01.037Z,49.23
2023-02-14T12:47:40.522Z,50.00
2023-02-14T12:50:35.256Z,52.20
2023-02-14T12:53:32.371Z,51.83
2023-02-14T12:56:09.934Z,50.60
2023-02-14T12:58:57.207Z,49.58
2023-02-14T13:01:39.234Z,49.10
2023-02-14T13:04:25.542Z,46.73
2023-02-14T13:06:58.055Z,47.40
2023-02-14T13:09:36.777Z,49.17
2023-02-14T13:12:16.874Z,51.43
2023-02-14T13:15:01.521Z,49.87
2023-02-14T13:17:38.486Z,49.93
2023-02-14T13:20:40.612Z,47.17
2023-02-14T13:23:14.826Z,48.50
2023-02-14T13:25:50.097Z,50.77
2023-02-14T13:28:19.707Z,50.90
2023-02-14T13:30:49.334Z,87.00
2023-02-14T13:33:34.103Z,63.87
2023-02-14T13:36:07.943Z,54.30
2023-02-14T13:38:46.535Z,49.60
2023-02-14T13:41:16.722Z,51.78
2023-02-14T13:43:55.290Z,52.00
2023-02-14T13:46:50.255Z,50.70
2023-02-14T13:49:28.256Z,47.15
2023-02-14T13:51:58.687Z,48.53
2023-02-14T13:54:42.582Z,49.45
2023-02-14T13:57:40.644Z,50.50
2023-02-14T14:00:47.025Z,49.83
2023-02-14T14:03:37.750Z,48.90
2023-02-14T14:06:08.076Z,50.13
2023-02-14T14:08:41.491Z,51.05
2023-02-14T14:11:33.866Z,54.15
2023-02-14T14:14:05.557Z,51.78
2023-02-14T14:16:36.560Z,48.53
2023-02-14T14:19:25.602Z,50.95
2023-02-14T14:22:02.906Z,50.15
2023-02-14T14:24:32.375Z,51.93
2023-02-14T14:27:02.801Z,52.17
2023-02-14T14:29:35.957Z,50.13
2023-02-14T14:32:13.714Z,48.70
2023-02-14T14:34:50.114Z,49.83
2023-02-14T14:37:20.994Z,48.83
2023-02-14T14:39:54.506Z,47.65
2023-02-14T14:42:25.232Z,47.77
2023-02-14T14:44:58.609Z,46.43
2023-02-14T14:47:30.744Z,47.07
2023-02-14T14:50:05.154Z,46.03
2023-02-14T14:52:37.914Z,52.58
2023-02-14T14:55:09.603Z,50.88
2023-02-14T14:57:39.903Z,44.67
2023-02-14T15:00:27.289Z,50.63
2023-02-14T15:03:17.594Z,43.17
2023-02-14T15:05:47.820Z,46.15
2023-02-14T15:08:23.530Z,44.80
2023-02-14T15:10:57.288Z,43.72
2023-02-14T15:13:49.896Z,43.63
2023-02-14T15:16:22.163Z,42.42
2023-02-14T15:18:52.330Z,45.72
2023-02-14T15:21:21.371Z,41.28
2023-02-14T15:23:50.413Z,44.00
2023-02-14T15:26:21.544Z,42.20
2023-02-14T15:29:00.426Z,41.87
2023-02-14T15:31:32.970Z,41.65
2023-02-14T15:34:03.434Z,42.10
2023-02-14T15:36:33.482Z,42.90
2023-02-14T15:39:03.393Z,41.28
2023-02-14T15:41:33.763Z,40.53
2023-02-14T15:44:01.763Z,40.67
2023-02-14T15:46:37.209Z,43.20
2023-02-14T15:49:11.345Z,42.73
2023-02-14T15:51:40.548Z,46.03
2023-02-14T15:54:19.470Z,45.67
2023-02-14T15:56:50.233Z,43.00
2023-02-14T15:59:21.210Z,43.85
2023-02-14T16:01:56.521Z,44.58
2023-02-14T16:04:26.255Z,44.50
2023-02-14T16:07:07.563Z,45.88
2023-02-14T16:09:36.486Z,47.27
2023-02-14T16:12:32.477Z,48.05
2023-02-14T16:15:04.332Z,45.97
2023-02-14T16:17:35.676Z,45.03
2023-02-14T16:20:23.422Z,45.97
2023-02-14T16:22:52.100Z,47.50
2023-02-14T16:25:21.792Z,49.53
2023-02-14T16:27:49.993Z,48.30
2023-02-14T16:30:20.078Z,47.90
2023-02-14T16:32:53.675Z,46.63
2023-02-14T16:35:22.894Z,48.53
2023-02-14T16:37:52.581Z,48.03
2023-02-14T16:40:26.724Z,47.67
2023-02-14T16:42:54.936Z,49.95
2023-02-14T16:45:23.115Z,48.17
2023-02-14T16:47:52.720Z,48.80
2023-02-14T16:50:22.821Z,49.00
2023-02-14T16:52:55.896Z,49.00
2023-02-14T16:55:26.497Z,51.47
2023-02-14T16:57:54.518Z,49.17
2023-02-14T17:00:24.029Z,50.80
2023-02-14T17:03:04.683Z,50.10
2023-02-14T17:05:36.842Z,47.33
2023-02-14T17:08:10.139Z,49.03
2023-02-14T17:10:39.179Z,46.30
2023-02-14T17:13:07.865Z,50.00
2023-02-14T17:15:36.392Z,47.37
2023-02-14T17:18:11.260Z,44.77
2023-02-14T17:20:39.585Z,45.83
2023-02-14T17:23:07.299Z,45.97
2023-02-14T17:25:35.211Z,43.87
2023-02-14T17:28:03.017Z,45.13
2023-02-14T17:30:30.995Z,43.47
2023-02-14T17:32:59.206Z,42.83
2023-02-14T17:35:28.868Z,47.03
2023-02-14T17:37:56.653Z,47.40
2023-02-14T17:40:24.627Z,47.87
2023-02-14T17:42:52.385Z,47.20
2023-02-14T17:45:20.866Z,46.07
2023-02-14T17:47:49.021Z,44.43
2023-02-14T17:50:18.541Z,45.20
2023-02-14T17:52:47.631Z,45.57
2023-02-14T17:55:16.667Z,46.17
2023-02-14T17:57:44.317Z,46.33
2023-02-14T18:00:16.190Z,46.37
2023-02-14T18:02:44.195Z,45.10
2023-02-14T18:05:12.447Z,47.70
2023-02-14T18:07:40.342Z,47.40
2023-02-14T18:10:10.510Z,47.50
2023-02-14T18:12:38.320Z,46.30
2023-02-14T18:15:06.676Z,48.27
2023-02-14T18:17:34.356Z,46.93
2023-02-14T18:20:03.167Z,48.80
2023-02-14T18:22:32.124Z,47.70
2023-02-14T18:24:59.867Z,47.80
2023-02-14T18:27:29.287Z,46.90
2023-02-14T18:29:57.498Z,46.53
2023-02-14T18:32:25.330Z,46.50
2023-02-14T18:34:53.212Z,46.97
2023-02-14T18:37:21.334Z,46.87
2023-02-14T18:39:49.352Z,48.07
2023-02-14T18:42:17.354Z,47.43
2023-02-14T18:44:47.104Z,47.07
2023-02-14T18:47:15.257Z,45.80
2023-02-14T18:49:43.064Z,46.07
2023-02-14T18:52:12.087Z,45.47
2023-02-14T18:54:43.620Z,44.67
2023-02-14T18:57:13.430Z,39.93
2023-02-14T18:59:41.490Z,42.10
2023-02-14T19:02:12.463Z,41.70
2023-02-14T19:04:41.158Z,38.50
2023-02-14T19:07:10.038Z,38.50
2023-02-14T19:09:40.432Z,39.87
2023-02-14T19:12:08.957Z,37.27
2023-02-14T19:14:37.730Z,40.10
2023-02-14T19:17:07.019Z,39.67
2023-02-14T19:19:36.813Z,41.80
2023-02-14T19:22:05.234Z,45.03
2023-02-14T19:24:32.868Z,41.90
2023-02-14T19:27:00.554Z,43.53
2023-02-14T19:29:28.290Z,41.50
2023-02-14T19:31:56.269Z,41.53
2023-02-14T19:34:28.946Z,37.87
2023-02-14T19:37:00.767Z,41.13
2023-02-14T19:39:30.573Z,38.43
2023-02-14T19:41:59.411Z,40.00
2023-02-14T19:44:29.220Z,39.43
2023-02-14T19:47:00.032Z,39.70
2023-02-14T19:49:29.758Z,40.50
2023-02-14T19:52:00.106Z,39.20
2023-02-14T19:54:29.847Z,37.63
2023-02-14T19:56:58.179Z,37.37
2023-02-14T19:59:27.861Z,37.57
2023-02-14T20:01:58.434Z,38.10
2023-02-14T20:04:28.942Z,37.43
2023-02-14T20:06:58.798Z,37.23
2023-02-14T20:09:27.061Z,37.47
2023-02-14T20:11:56.969Z,36.47
2023-02-14T20:14:27.259Z,38.00
2023-02-14T20:16:57.364Z,38.10
2023-02-14T20:19:28.032Z,35.40
2023-02-14T20:21:56.383Z,39.00
2023-02-14T20:24:28.263Z,36.40
2023-02-14T20:26:56.827Z,38.00
2023-02-14T20:29:26.591Z,37.87
2023-02-14T20:31:58.123Z,35.43
2023-02-14T20:34:26.691Z,36.97
2023-02-14T20:36:55.816Z,36.43
2023-02-14T20:39:30.499Z,35.77
2023-02-14T20:41:58.576Z,35.33
2023-02-14T20:44:26.799Z,38.20
2023-02-14T20:46:57.423Z,39.63
2023-02-14T20:49:27.144Z,37.13
2023-02-14T20:51:56.138Z,36.07
2023-02-14T20:54:28.783Z,38.17
2023-02-14T20:56:58.469Z,35.70
2023-02-14T20:59:28.756Z,36.20
2023-02-14T21:01:58.564Z,35.90
2023-02-14T21:04:26.775Z,36.37
2023-02-14T21:06:54.842Z,35.83
2023-02-14T21:09:23.319Z,34.47
2023-02-14T21:11:53.961Z,36.00
2023-02-14T21:14:22.195Z,36.90
2023-02-14T21:16:50.167Z,35.97
2023-02-14T21:19:18.652Z,35.97
2023-02-14T21:21:46.697Z,35.17
2023-02-14T21:24:16.907Z,34.97
2023-02-14T21:26:45.131Z,36.00
2023-02-14T21:29:14.658Z,33.33
2023-02-14T21:31:43.086Z,34.60
2023-02-14T21:34:13.371Z,33.80
2023-02-14T21:36:41.561Z,33.23
2023-02-14T21:39:09.839Z,34.53
2023-02-14T21:41:38.649Z,33.03
2023-02-14T21:44:07.456Z,33.97
2023-02-14T21:46:39.441Z,32.23
2023-02-14T21:49:24.728Z,31.60
2023-02-14T21:51:52.817Z,30.63
2023-02-14T21:54:20.806Z,31.57
2023-02-14T21:56:50.325Z,32.57
2023-02-14T21:59:18.704Z,32.57
2023-02-14T22:01:47.980Z,30.57
2023-02-14T22:04:15.687Z,31.83
2023-02-14T22:06:43.806Z,35.10
2023-02-14T22:09:14.321Z,36.67
2023-02-14T22:11:42.182Z,35.27
2023-02-14T22:14:10.065Z,36.87
2023-02-14T22:16:38.407Z,34.40
2023-02-14T22:19:08.563Z,32.87
2023-02-14T22:21:36.330Z,30.67
2023-02-14T22:24:05.127Z,31.50
2023-02-14T22:26:35.395Z,33.37
2023-02-14T22:29:03.513Z,31.10
2023-02-14T22:31:34.347Z,32.23
2023-02-14T22:34:02.141Z,31.60
2023-02-14T22:36:31.269Z,30.43
2023-02-14T22:38:58.969Z,31.60
2023-02-14T22:41:27.238Z,31.00
2023-02-14T22:43:55.617Z,31.17
2023-02-14T22:46:25.110Z,30.97
2023-02-14T22:48:54.320Z,31.33
2023-02-14T22:51:24.048Z,30.70
2023-02-14T22:53:56.074Z,31.90
2023-02-14T22:56:26.463Z,30.07
2023-02-14T22:58:55.263Z,29.57
2023-02-14T23:01:24.376Z,29.37
2023-02-14T23:03:54.946Z,29.53
2023-02-14T23:06:23.306Z,29.67
2023-02-14T23:08:51.165Z,29.73
2023-02-14T23:11:23.372Z,30.60
2023-02-14T23:14:08.477Z,29.90
2023-02-14T23:16:54.040Z,29.27
2023-02-14T23:19:40.931Z,31.07
2023-02-14T23:22:10.341Z,29.43
2023-02-14T23:24:38.868Z,29.03
2023-02-14T23:27:09.129Z,31.03
2023-02-14T23:29:37.443Z,31.50
2023-02-14T23:32:06.353Z,31.27
2023-02-14T23:34:37.111Z,28.80
2023-02-14T23:37:05.570Z,29.47
2023-02-14T23:39:35.875Z,29.37
2023-02-14T23:42:03.928Z,29.67
2023-02-14T23:44:33.930Z,29.83
2023-02-14T23:47:04.174Z,27.17
2023-02-14T23:49:32.923Z,29.47
2023-02-14T23:52:01.948Z,30.50
2023-02-14T23:54:29.795Z,28.27
2023-02-14T23:56:58.326Z,30.20
2023-02-14T23:59:26.244Z,30.57
